Urb Hnas Davila, Puerto Rico
Current Conditions -  °F | °C
As of 6:45 PM on Wednesday 26 Nov 2014 (Local Time) from TJIG Reporting Station
Scattered Clouds Scattered Clouds  
Wind Chill: 81°   Ceiling: Unl
Heat Index: 85°   Visibility: 10mi
Dew Point: 72°   Wind: 17mph
Humidity: 74%   Direction: 110°ESE
Pressure: 30.02"   Gusts: NA
Location:  18.1781°N, 66.1167°W
Report Text: TJIG 262245Z 11015KT 10SM SCT040 27/22 A3002 RMK RY09 IN USE ATIS N
Loading
Personal Weather Stations






























Interactive Weather Map New forecast layout! Learn more

10-Day Weather Forecast

Advertisements
Track Severe Weather on mobile